createdAt,value
2019-04-23T00:00:03.491Z,50.06
2019-04-23T00:02:55.784Z,50.08
2019-04-23T00:05:33.211Z,49.93
2019-04-23T00:10:26.172Z,50.41
2019-04-23T00:12:49.601Z,50.63
2019-04-23T00:15:30.437Z,51.02
2019-04-23T00:20:14.281Z,51.12
2019-04-23T00:23:06.178Z,50.37
2019-04-23T00:26:01.690Z,50.95
2019-04-23T00:28:20.571Z,50.98
2019-04-23T00:30:49.194Z,51.63
2019-04-23T00:33:20.200Z,51.98
2019-04-23T00:40:40.853Z,51.50
2019-04-23T00:43:08.600Z,51.72
2019-04-23T00:45:42.996Z,51.89
2019-04-23T00:48:02.252Z,52.37
2019-04-23T00:53:04.044Z,52.72
2019-04-23T00:55:28.460Z,52.57
2019-04-23T00:58:08.596Z,53.29
2019-04-23T01:00:42.416Z,53.17
2019-04-23T01:05:29.433Z,53.76
2019-04-23T01:07:58.219Z,53.54
2019-04-23T01:10:34.931Z,53.57
2019-04-23T01:13:09.229Z,53.50
2019-04-23T01:15:42.748Z,54.00
2019-04-23T01:18:14.376Z,54.44
2019-04-23T01:20:40.631Z,54.11
2019-04-23T01:22:44.448Z,54.60
2019-04-23T01:25:28.697Z,54.71
2019-04-23T01:28:23.219Z,54.38
2019-04-23T01:30:55.355Z,54.49
2019-04-23T01:33:27.085Z,54.84
2019-04-23T01:35:50.525Z,55.29
2019-04-23T01:38:21.936Z,55.35
2019-04-23T01:40:40.686Z,56.22
2019-04-23T01:43:16.261Z,56.72
2019-04-23T01:45:54.571Z,56.84
2019-04-23T01:48:05.035Z,56.39
2019-04-23T01:53:14.604Z,56.37
2019-04-23T01:55:43.745Z,56.50
2019-04-23T02:03:11.011Z,56.08
2019-04-23T02:05:39.699Z,56.22
2019-04-23T02:08:03.524Z,56.32
2019-04-23T02:13:11.078Z,56.91
2019-04-23T02:15:37.994Z,56.88
2019-04-23T02:18:06.567Z,56.98
2019-04-23T02:20:39.206Z,58.00
2019-04-23T02:23:24.929Z,57.82
2019-04-23T02:25:50.496Z,58.40
2019-04-23T02:28:23.092Z,58.72
2019-04-23T02:43:16.748Z,59.50
2019-04-23T02:46:05.484Z,60.23
2019-04-23T02:51:04.851Z,61.18
2019-04-23T02:56:18.237Z,61.05
2019-04-23T02:58:35.136Z,61.60
2019-04-23T03:03:38.930Z,62.12
2019-04-23T03:11:09.930Z,62.87
2019-04-23T03:22:06.076Z,63.80
2019-04-23T03:27:31.432Z,63.88
2019-04-23T03:30:13.384Z,63.68
2019-04-23T03:42:19.378Z,64.77
2019-04-23T03:49:48.601Z,65.53
2019-04-23T03:52:23.285Z,65.98
2019-04-23T03:59:46.776Z,66.38
2019-04-23T04:02:37.589Z,66.68
2019-04-23T04:09:43.390Z,66.82
2019-04-23T04:12:16.595Z,66.93
2019-04-23T04:17:09.763Z,67.15
2019-04-23T04:27:05.557Z,67.39
2019-04-23T04:32:00.318Z,67.36
2019-04-23T04:37:18.352Z,67.28
2019-04-23T04:41:58.984Z,67.23
2019-04-23T04:54:13.917Z,68.59
2019-04-23T04:59:09.484Z,68.32
2019-04-23T05:01:36.907Z,68.17
2019-04-23T05:04:13.537Z,68.14
2019-04-23T05:06:44.428Z,68.02
2019-04-23T05:09:09.408Z,67.69
2019-04-23T05:11:51.717Z,67.79
2019-04-23T05:14:00.351Z,67.52
2019-04-23T05:16:27.745Z,67.54
2019-04-23T05:19:15.487Z,67.18
2019-04-23T05:21:40.617Z,67.13
2019-04-23T05:24:15.016Z,67.24
2019-04-23T05:26:35.146Z,66.66
2019-04-23T05:29:01.948Z,66.96
2019-04-23T05:33:58.194Z,66.20
2019-04-23T05:41:21.933Z,64.65
2019-04-23T05:48:45.587Z,62.68
2019-04-23T05:51:24.280Z,60.84
2019-04-23T05:53:45.082Z,60.21
2019-04-23T05:56:13.226Z,60.48
2019-04-23T05:58:47.013Z,60.24
2019-04-23T06:01:45.724Z,59.49
2019-04-23T06:03:56.769Z,60.14
2019-04-23T06:06:32.620Z,59.88
2019-04-23T06:08:53.268Z,59.79
2019-04-23T06:11:30.756Z,59.35
2019-04-23T06:13:56.151Z,59.18
2019-04-23T06:16:22.120Z,58.14
2019-04-23T06:18:44.441Z,56.78
2019-04-23T06:21:18.222Z,54.67
2019-04-23T06:28:40.327Z,52.25
2019-04-23T06:31:09.651Z,52.23
2019-04-23T06:33:41.677Z,52.33
2019-04-23T06:38:44.951Z,49.63
2019-04-23T06:41:13.190Z,48.21
2019-04-23T06:43:45.938Z,46.52
2019-04-23T06:46:09.972Z,45.55
2019-04-23T06:48:38.461Z,43.69
2019-04-23T06:53:28.658Z,41.87
2019-04-23T06:56:03.990Z,41.05
2019-04-23T06:58:32.422Z,42.94
2019-04-23T07:01:01.981Z,42.46
2019-04-23T07:03:31.500Z,40.55
2019-04-23T07:08:44.392Z,39.72
2019-04-23T07:11:27.753Z,37.29
2019-04-23T07:16:21.659Z,35.92
2019-04-23T07:18:50.960Z,36.05
2019-04-23T07:21:26.727Z,34.88
2019-04-23T07:28:50.038Z,33.76
2019-04-23T07:31:20.623Z,36.43
2019-04-23T07:33:54.742Z,36.02
2019-04-23T07:36:17.847Z,36.13
2019-04-23T07:41:49.777Z,32.02
2019-04-23T07:44:42.384Z,31.91
2019-04-23T07:49:52.231Z,35.78
2019-04-23T07:52:18.020Z,34.22
2019-04-23T07:54:45.233Z,34.57
2019-04-23T07:57:15.455Z,33.12
2019-04-23T07:59:43.168Z,31.70
2019-04-23T08:02:14.177Z,33.93
2019-04-23T08:04:47.619Z,35.54
2019-04-23T08:07:06.627Z,33.60
2019-04-23T08:09:44.010Z,33.92
2019-04-23T08:12:13.791Z,30.04
2019-04-23T08:14:39.261Z,28.82
2019-04-23T08:16:58.310Z,27.72
2019-04-23T08:19:33.193Z,30.27
2019-04-23T08:22:06.655Z,30.98
2019-04-23T08:27:35.197Z,29.96
2019-04-23T08:30:04.501Z,30.54
2019-04-23T08:32:27.775Z,30.40
2019-04-23T08:35:06.529Z,28.12
2019-04-23T08:37:49.339Z,28.06
2019-04-23T08:40:04.724Z,27.53
2019-04-23T08:42:46.772Z,29.94
2019-04-23T08:45:18.705Z,30.94
2019-04-23T08:48:02.986Z,30.70
2019-04-23T08:50:27.623Z,32.15
2019-04-23T08:52:53.330Z,32.23
2019-04-23T08:57:47.415Z,30.76
2019-04-23T09:00:23.188Z,30.31
2019-04-23T09:02:47.663Z,28.01
2019-04-23T09:05:19.293Z,26.96
2019-04-23T09:07:54.124Z,28.75
2019-04-23T09:10:19.719Z,27.54
2019-04-23T09:12:43.838Z,26.26
2019-04-23T09:15:43.281Z,26.42
2019-04-23T09:18:04.264Z,27.52
2019-04-23T09:20:29.437Z,25.93
2019-04-23T09:22:51.714Z,25.09
2019-04-23T09:27:54.762Z,23.35
2019-04-23T09:33:12.043Z,26.67
2019-04-23T09:35:52.796Z,24.45
2019-04-23T09:38:54.158Z,26.08
2019-04-23T09:41:27.341Z,26.02
2019-04-23T09:47:00.399Z,22.05
2019-04-23T09:49:29.029Z,23.04
2019-04-23T09:52:02.553Z,25.72
2019-04-23T09:54:23.710Z,27.70
2019-04-23T09:56:52.630Z,26.40
2019-04-23T09:59:41.176Z,26.79
2019-04-23T10:01:40.969Z,25.85
2019-04-23T10:04:04.135Z,25.15
2019-04-23T10:06:25.010Z,24.58
2019-04-23T10:08:53.585Z,22.67
2019-04-23T10:11:19.677Z,24.06
2019-04-23T10:13:46.095Z,26.77
2019-04-23T10:16:15.733Z,24.91
2019-04-23T10:18:41.587Z,23.89
2019-04-23T10:21:08.374Z,22.79
2019-04-23T10:23:35.172Z,24.09
2019-04-23T10:26:02.057Z,28.07
2019-04-23T10:28:49.771Z,26.21
2019-04-23T10:31:16.892Z,24.55
2019-04-23T10:33:44.020Z,22.40
2019-04-23T10:36:15.140Z,22.13
2019-04-23T10:38:41.634Z,22.04
2019-04-23T10:41:09.779Z,23.30
2019-04-23T10:43:40.432Z,22.79
2019-04-23T10:46:29.574Z,22.58
2019-04-23T10:52:08.440Z,20.79
2019-04-23T10:54:36.309Z,22.70
2019-04-23T10:57:12.761Z,25.89
2019-04-23T10:59:38.836Z,27.65
2019-04-23T11:04:49.171Z,22.87
2019-04-23T11:12:23.767Z,22.83
2019-04-23T11:14:46.183Z,23.75
2019-04-23T11:17:09.637Z,22.74
2019-04-23T11:22:21.004Z,20.74
2019-04-23T11:24:41.657Z,22.32
2019-04-23T11:27:07.910Z,28.14
2019-04-23T11:29:34.537Z,27.25
2019-04-23T11:32:05.968Z,26.60
2019-04-23T11:34:47.926Z,25.62
2019-04-23T11:39:31.031Z,25.31
2019-04-23T11:42:01.553Z,27.38
2019-04-23T11:44:30.812Z,26.77
2019-04-23T11:49:44.868Z,24.39
2019-04-23T11:54:17.763Z,23.81
2019-04-23T11:59:25.905Z,18.82
2019-04-23T12:02:00.726Z,20.08
2019-04-23T12:05:05.472Z,19.63
2019-04-23T12:07:49.850Z,21.21
2019-04-23T12:10:43.047Z,20.84
2019-04-23T12:12:59.716Z,21.29
2019-04-23T12:20:27.149Z,19.79
2019-04-23T12:30:25.217Z,23.66
2019-04-23T12:32:59.354Z,23.70
2019-04-23T12:35:19.380Z,23.91
2019-04-23T12:38:13.891Z,21.65
2019-04-23T12:48:15.612Z,18.90
2019-04-23T12:50:41.698Z,18.08
2019-04-23T12:52:51.210Z,19.10
2019-04-23T12:57:46.754Z,19.09
2019-04-23T13:00:16.899Z,17.15
2019-04-23T13:02:45.123Z,18.51
2019-04-23T13:05:21.753Z,19.74
2019-04-23T13:10:13.199Z,24.17
2019-04-23T13:12:50.288Z,22.61
2019-04-23T13:15:11.531Z,22.45
2019-04-23T13:17:44.565Z,19.98
2019-04-23T13:20:07.637Z,22.40
2019-04-23T13:22:41.052Z,20.90
2019-04-23T13:25:09.481Z,19.71
2019-04-23T13:27:54.061Z,23.58
2019-04-23T13:30:25.361Z,27.26
2019-04-23T13:32:50.167Z,25.79
2019-04-23T13:35:30.903Z,24.94
2019-04-23T13:37:54.539Z,23.00
2019-04-23T13:40:15.362Z,20.07
2019-04-23T13:45:17.558Z,21.99
2019-04-23T13:50:27.655Z,21.75
2019-04-23T13:53:03.023Z,20.41
2019-04-23T13:57:59.320Z,22.56
2019-04-23T14:00:06.754Z,22.23
2019-04-23T14:02:37.197Z,20.38
2019-04-23T14:05:28.240Z,20.05
2019-04-23T14:07:54.083Z,20.30
2019-04-23T14:13:08.299Z,20.90
2019-04-23T14:15:34.190Z,22.74
2019-04-23T14:18:11.512Z,23.00
2019-04-23T14:20:26.142Z,20.06
2019-04-23T14:22:59.987Z,18.51
2019-04-23T14:25:15.972Z,17.34
2019-04-23T14:27:56.596Z,17.41
2019-04-23T14:30:21.764Z,16.25
2019-04-23T14:32:45.411Z,17.98
2019-04-23T14:38:01.627Z,16.47
2019-04-23T14:40:22.224Z,19.58
2019-04-23T14:45:32.665Z,21.82
2019-04-23T14:47:46.389Z,21.99
2019-04-23T14:52:55.118Z,20.41
2019-04-23T14:57:53.454Z,21.27
2019-04-23T15:00:18.671Z,20.46
2019-04-23T15:02:44.928Z,20.28
2019-04-23T15:05:15.337Z,18.37
2019-04-23T15:07:46.251Z,18.43
2019-04-23T15:12:36.638Z,19.21
2019-04-23T15:15:19.593Z,18.97
2019-04-23T15:17:34.566Z,18.69
2019-04-23T15:20:03.334Z,19.04
2019-04-23T15:22:42.450Z,19.17
2019-04-23T15:25:21.569Z,23.03
2019-04-23T15:29:56.096Z,24.90
2019-04-23T15:32:36.210Z,23.62
2019-04-23T15:35:05.261Z,22.17
2019-04-23T15:37:43.032Z,20.78
2019-04-23T15:40:04.431Z,19.75
2019-04-23T15:47:26.473Z,18.61
2019-04-23T15:50:06.121Z,21.04
2019-04-23T15:52:35.207Z,23.01
2019-04-23T15:54:56.792Z,22.71
2019-04-23T15:57:32.052Z,22.34
2019-04-23T15:59:52.677Z,22.67
2019-04-23T16:01:49.110Z,22.69
2019-04-23T16:04:18.120Z,22.63
2019-04-23T16:06:47.822Z,23.19
2019-04-23T16:09:52.815Z,21.92
2019-04-23T16:12:06.309Z,23.83
2019-04-23T16:14:56.791Z,23.54
2019-04-23T16:17:20.916Z,24.48
2019-04-23T16:20:21.655Z,24.01
2019-04-23T16:22:33.246Z,26.50
2019-04-23T16:25:06.924Z,26.94
2019-04-23T16:27:21.591Z,26.91
2019-04-23T16:30:12.809Z,27.58
2019-04-23T16:33:11.379Z,28.20
2019-04-23T16:41:09.557Z,28.06
2019-04-23T16:43:40.837Z,28.92
2019-04-23T16:51:11.105Z,30.89
2019-04-23T16:53:29.938Z,32.33
2019-04-23T16:56:13.117Z,32.38
2019-04-23T17:01:07.240Z,32.67
2019-04-23T17:03:31.331Z,33.58
2019-04-23T17:06:04.025Z,34.54
2019-04-23T17:08:51.917Z,35.36
2019-04-23T17:11:00.148Z,35.80
2019-04-23T17:13:24.046Z,35.02
2019-04-23T17:15:58.560Z,35.81
2019-04-23T17:18:24.488Z,35.55
2019-04-23T17:20:51.993Z,36.31
2019-04-23T17:25:54.296Z,36.33
2019-04-23T17:28:18.330Z,36.07
2019-04-23T17:44:10.865Z,38.48
2019-04-23T17:46:26.822Z,38.86
2019-04-23T17:48:56.564Z,38.94
2019-04-23T17:51:19.810Z,39.59
2019-04-23T17:53:56.175Z,40.64
2019-04-23T17:56:27.055Z,40.54
2019-04-23T17:58:52.285Z,40.85
2019-04-23T18:01:21.398Z,41.27
2019-04-23T18:03:55.943Z,41.14
2019-04-23T18:08:49.376Z,41.44
2019-04-23T18:11:19.592Z,42.25
2019-04-23T18:13:48.423Z,43.34
2019-04-23T18:16:33.449Z,43.43
2019-04-23T18:18:54.599Z,44.08
2019-04-23T18:21:44.219Z,44.24
2019-04-23T18:24:16.735Z,44.34
2019-04-23T18:26:54.684Z,45.17
2019-04-23T18:29:25.588Z,45.05
2019-04-23T18:32:05.839Z,45.69
2019-04-23T18:34:43.902Z,45.66
2019-04-23T18:37:02.733Z,46.14
2019-04-23T18:39:29.480Z,46.92
2019-04-23T18:42:06.339Z,46.79
2019-04-23T18:44:30.537Z,47.24
2019-04-23T18:47:00.497Z,46.88
2019-04-23T18:49:28.115Z,46.86
2019-04-23T18:54:24.703Z,46.79
2019-04-23T18:57:06.663Z,47.15
2019-04-23T18:59:22.096Z,47.53
2019-04-23T19:02:17.451Z,47.56
2019-04-23T19:05:00.575Z,48.02
2019-04-23T19:07:42.634Z,48.03
2019-04-23T19:10:28.463Z,48.01
2019-04-23T19:13:02.156Z,48.33
2019-04-23T19:17:50.532Z,48.50
2019-04-23T19:20:39.661Z,49.06
2019-04-23T19:23:04.719Z,48.69
2019-04-23T19:25:22.779Z,48.92
2019-04-23T19:30:41.773Z,48.82
2019-04-23T19:33:13.664Z,49.02
2019-04-23T19:35:58.951Z,49.40
2019-04-23T19:38:26.525Z,49.30
2019-04-23T19:40:49.400Z,49.53
2019-04-23T19:43:25.101Z,48.88
2019-04-23T19:45:49.722Z,48.99
2019-04-23T19:48:09.213Z,49.20
2019-04-23T19:50:40.653Z,49.00
2019-04-23T19:53:25.615Z,48.97
2019-04-23T19:55:50.057Z,49.63
2019-04-23T19:58:14.618Z,49.42
2019-04-23T20:01:02.303Z,49.95
2019-04-23T20:03:17.128Z,49.84
2019-04-23T20:05:30.842Z,50.09
2019-04-23T20:08:25.453Z,50.08
2019-04-23T20:10:32.969Z,50.15
2019-04-23T20:13:01.616Z,50.20
2019-04-23T20:15:26.677Z,50.40
2019-04-23T20:17:53.952Z,50.09
2019-04-23T20:20:25.169Z,50.58
2019-04-23T20:22:51.238Z,50.23
2019-04-23T20:28:05.546Z,50.41
2019-04-23T20:31:03.515Z,50.80
2019-04-23T20:33:40.854Z,51.01
2019-04-23T20:35:39.563Z,51.32
2019-04-23T20:38:27.457Z,51.42
2019-04-23T20:40:48.580Z,51.85
2019-04-23T20:43:07.409Z,51.66
2019-04-23T20:45:53.503Z,51.62
2019-04-23T20:48:04.878Z,51.10
2019-04-23T20:50:34.786Z,51.09
2019-04-23T20:52:59.610Z,51.45
2019-04-23T20:55:51.107Z,51.10
2019-04-23T20:58:14.127Z,51.13
2019-04-23T21:00:59.281Z,50.73
2019-04-23T21:03:42.918Z,50.49
2019-04-23T21:05:58.545Z,50.08
2019-04-23T21:08:30.367Z,49.99
2019-04-23T21:10:54.072Z,50.55
2019-04-23T21:16:01.592Z,49.99
2019-04-23T21:18:26.455Z,50.05
2019-04-23T21:20:56.060Z,50.02
2019-04-23T21:25:47.559Z,50.20
2019-04-23T21:31:00.716Z,49.66
2019-04-23T21:33:16.230Z,49.78
2019-04-23T21:38:46.392Z,49.89
2019-04-23T21:41:41.840Z,50.09
2019-04-23T21:46:20.472Z,50.13
2019-04-23T21:51:31.480Z,50.15
2019-04-23T21:53:46.437Z,50.33
2019-04-23T21:56:17.058Z,50.53
2019-04-23T21:58:53.571Z,50.84
2019-04-23T22:01:20.699Z,50.74
2019-04-23T22:04:06.553Z,50.77
2019-04-23T22:06:28.300Z,51.17
2019-04-23T22:08:43.876Z,51.11
2019-04-23T22:11:36.210Z,51.53
2019-04-23T22:13:53.780Z,51.57
2019-04-23T22:18:48.467Z,51.41
2019-04-23T22:21:17.340Z,51.30
2019-04-23T22:23:41.950Z,51.52
2019-04-23T22:26:25.514Z,51.58
2019-04-23T22:28:40.056Z,51.71
2019-04-23T22:31:15.161Z,51.54
2019-04-23T22:33:38.543Z,51.75
2019-04-23T22:36:06.306Z,51.81
2019-04-23T22:38:26.317Z,51.51
2019-04-23T22:40:56.164Z,52.09
2019-04-23T22:46:02.950Z,52.25
2019-04-23T22:48:23.614Z,52.18
2019-04-23T22:51:07.078Z,52.26
2019-04-23T22:53:16.830Z,52.17
2019-04-23T22:55:57.285Z,52.25
2019-04-23T22:58:23.416Z,52.05
2019-04-23T23:01:12.697Z,52.37
2019-04-23T23:03:36.131Z,52.57
2019-04-23T23:06:12.761Z,52.43
2019-04-23T23:08:52.308Z,52.68
2019-04-23T23:13:48.090Z,52.92
2019-04-23T23:16:05.463Z,53.09
2019-04-23T23:18:28.458Z,52.95
2019-04-23T23:23:24.266Z,53.33
2019-04-23T23:25:53.949Z,53.54
2019-04-23T23:31:06.529Z,53.75
2019-04-23T23:35:53.747Z,53.61
2019-04-23T23:38:24.825Z,54.11
2019-04-23T23:40:58.742Z,54.08
2019-04-23T23:43:25.903Z,53.91
2019-04-23T23:45:57.921Z,53.89
2019-04-23T23:48:12.798Z,54.25
2019-04-23T23:55:48.698Z,54.25
2019-04-23T23:58:14.983Z,54.66
